createdAt,value
2018-09-25T00:01:17.298Z,102211.03
2018-09-25T00:03:51.162Z,102223.79
2018-09-25T00:06:24.835Z,102224.69
2018-09-25T00:08:58.465Z,102226.47
2018-09-25T00:11:31.981Z,102229.09
2018-09-25T00:14:05.866Z,102233.06
2018-09-25T00:16:39.866Z,102239.14
2018-09-25T00:19:13.782Z,102237.88
2018-09-25T00:21:47.566Z,102240.60
2018-09-25T00:24:21.254Z,102236.30
2018-09-25T00:26:55.020Z,102238.97
2018-09-25T00:29:28.725Z,102241.66
2018-09-25T00:32:02.449Z,102201.79
2018-09-25T00:34:36.298Z,102254.89
2018-09-25T00:37:10.089Z,102256.28
2018-09-25T00:39:43.918Z,102261.11
2018-09-25T00:42:17.744Z,102267.27
2018-09-25T00:44:51.566Z,102274.28
2018-09-25T00:47:25.486Z,102267.79
2018-09-25T00:49:59.426Z,102283.98
2018-09-25T00:52:33.133Z,102277.05
2018-09-25T00:55:06.730Z,102285.34
2018-09-25T00:57:40.410Z,102283.19
2018-09-25T01:00:14.182Z,102291.05
2018-09-25T01:02:48.050Z,102281.07
2018-09-25T01:05:21.818Z,102288.47
2018-09-25T01:07:55.753Z,102294.59
2018-09-25T01:10:29.442Z,102289.38
2018-09-25T01:13:03.191Z,102300.31
2018-09-25T01:15:37.030Z,102306.85
2018-09-25T01:18:10.891Z,102306.86
2018-09-25T01:20:44.745Z,102309.47
2018-09-25T01:23:18.587Z,102318.17
2018-09-25T01:25:52.582Z,102321.23
2018-09-25T01:28:26.251Z,102315.13
2018-09-25T01:31:00.046Z,102317.31
2018-09-25T01:33:33.886Z,102317.31
2018-09-25T01:36:07.816Z,102326.88
2018-09-25T01:38:41.829Z,102321.64
2018-09-25T01:41:15.505Z,102326.44
2018-09-25T01:43:49.569Z,102326.86
2018-09-25T01:46:23.290Z,102327.73
2018-09-25T01:48:57.168Z,102336.88
2018-09-25T01:51:31.024Z,102347.73
2018-09-25T01:54:04.761Z,102350.34
2018-09-25T01:56:38.626Z,102350.33
2018-09-25T01:59:12.672Z,102358.19
2018-09-25T02:01:46.530Z,102355.10
2018-09-25T02:04:20.373Z,102352.94
2018-09-25T02:06:54.290Z,102351.61
2018-09-25T02:09:27.989Z,102356.37
2018-09-25T02:12:01.859Z,102368.55
2018-09-25T02:14:35.681Z,102378.98
2018-09-25T02:17:09.566Z,102378.08
2018-09-25T02:19:43.423Z,102362.36
2018-09-25T02:22:17.109Z,102375.86
2018-09-25T02:24:50.774Z,102388.03
2018-09-25T02:27:24.385Z,102391.50
2018-09-25T02:29:58.258Z,102396.25
2018-09-25T02:32:31.854Z,102405.81
2018-09-25T02:35:05.849Z,102403.18
2018-09-25T02:37:39.658Z,102409.21
2018-09-25T02:40:13.578Z,102413.56
2018-09-25T02:42:47.469Z,102416.14
2018-09-25T02:45:21.126Z,102419.57
2018-09-25T02:47:54.977Z,102426.08
2018-09-25T02:50:29.022Z,102427.36
2018-09-25T02:53:02.910Z,102365.36
2018-09-25T02:55:36.771Z,102434.30
2018-09-25T02:58:10.610Z,102428.16
2018-09-25T03:00:44.301Z,102426.40
2018-09-25T03:03:17.855Z,102435.50
2018-09-25T03:05:51.665Z,102428.09
2018-09-25T03:08:25.427Z,102436.33
2018-09-25T03:10:59.266Z,102441.94
2018-09-25T03:13:33.105Z,102448.00
2018-09-25T03:16:06.772Z,102444.08
2018-09-25T03:18:40.581Z,102442.77
2018-09-25T03:21:14.526Z,102394.23
2018-09-25T03:23:48.513Z,102456.61
2018-09-25T03:26:22.018Z,102448.75
2018-09-25T03:28:55.844Z,102453.11
2018-09-25T03:31:29.713Z,102446.96
2018-09-25T03:34:03.525Z,102457.39
2018-09-25T03:36:37.585Z,102410.96
2018-09-25T03:39:13.542Z,102468.66
2018-09-25T03:41:47.530Z,102459.03
2018-09-25T03:44:21.189Z,102471.20
2018-09-25T03:46:54.972Z,102474.67
2018-09-25T03:49:28.872Z,102469.36
2018-09-25T03:52:02.645Z,102483.30
2018-09-25T03:54:36.485Z,102486.73
2018-09-25T03:57:10.267Z,102491.48
2018-09-25T03:59:43.974Z,102488.39
2018-09-25T04:02:17.574Z,102488.35
2018-09-25T04:04:51.383Z,102490.50
2018-09-25T04:07:25.315Z,102489.16
2018-09-25T04:09:59.102Z,102490.87
2018-09-25T04:12:32.799Z,102490.00
2018-09-25T04:15:06.590Z,102493.44
2018-09-25T04:17:40.406Z,102503.82
2018-09-25T04:20:14.337Z,102504.27
2018-09-25T04:22:48.280Z,102502.98
2018-09-25T04:25:22.142Z,102505.55
2018-09-25T04:27:55.882Z,102510.77
2018-09-25T04:30:29.617Z,102505.97
2018-09-25T04:33:03.674Z,102513.33
2018-09-25T04:35:37.610Z,102517.59
2018-09-25T04:38:11.473Z,102520.59
2018-09-25T04:40:45.610Z,102521.06
2018-09-25T04:43:21.142Z,102521.06
2018-09-25T04:45:54.936Z,102528.84
2018-09-25T04:48:28.674Z,102516.13
2018-09-25T04:51:02.599Z,102527.94
2018-09-25T04:53:36.378Z,102527.06
2018-09-25T04:56:10.242Z,102534.83
2018-09-25T04:58:44.172Z,102492.37
2018-09-25T05:01:17.941Z,102530.89
2018-09-25T05:03:51.790Z,102532.23
2018-09-25T05:06:25.674Z,102536.61
2018-09-25T05:08:59.535Z,102543.10
2018-09-25T05:11:33.952Z,102541.78
2018-09-25T05:14:07.970Z,102543.48
2018-09-25T05:16:42.943Z,102545.20
2018-09-25T05:19:16.626Z,102549.11
2018-09-25T05:21:50.308Z,102551.24
2018-09-25T05:24:24.374Z,102552.11
2018-09-25T05:26:58.223Z,102554.72
2018-09-25T05:29:32.074Z,102548.64
2018-09-25T05:32:05.827Z,102550.41
2018-09-25T05:34:39.656Z,102554.75
2018-09-25T05:37:13.282Z,102556.08
2018-09-25T05:39:47.542Z,102554.80
2018-09-25T05:42:21.497Z,102560.05
2018-09-25T05:44:55.870Z,102564.87
2018-09-25T05:47:29.779Z,102560.98
2018-09-25T05:50:03.678Z,102564.06
2018-09-25T05:52:37.386Z,102561.05
2018-09-25T05:55:11.364Z,102565.86
2018-09-25T05:57:45.229Z,102563.73
2018-09-25T06:00:19.094Z,102569.94
2018-09-25T06:02:52.970Z,102577.83
2018-09-25T06:05:28.065Z,102575.30
2018-09-25T06:08:04.543Z,102574.92
2018-09-25T06:10:39.210Z,102578.44
2018-09-25T06:13:13.893Z,102578.92
2018-09-25T06:15:47.745Z,102576.43
2018-09-25T06:18:21.655Z,102575.23
2018-09-25T06:20:55.470Z,102582.72
2018-09-25T06:23:29.186Z,102579.75
2018-09-25T06:26:03.046Z,102459.53
2018-09-25T06:28:36.814Z,102581.20
2018-09-25T06:31:10.430Z,102580.84
2018-09-25T06:33:44.158Z,102584.81
2018-09-25T06:36:17.942Z,102580.11
2018-09-25T06:38:51.813Z,102589.30
2018-09-25T06:41:26.005Z,102535.59
2018-09-25T06:44:00.392Z,102585.50
2018-09-25T06:46:34.162Z,102585.14
2018-09-25T06:49:08.034Z,102583.91
2018-09-25T06:51:41.786Z,102581.78
2018-09-25T06:54:15.747Z,102581.85
2018-09-25T06:56:49.631Z,102579.32
2018-09-25T06:59:25.050Z,102582.00
2018-09-25T07:01:58.904Z,102584.67
2018-09-25T07:04:32.645Z,102585.16
2018-09-25T07:07:06.810Z,102587.83
2018-09-25T07:09:40.512Z,102584.84
2018-09-25T07:12:14.673Z,102587.06
2018-09-25T07:14:48.563Z,102584.06
2018-09-25T07:17:22.349Z,102592.79
2018-09-25T07:19:56.016Z,102602.45
2018-09-25T07:22:29.755Z,102599.84
2018-09-25T07:25:03.558Z,102602.08
2018-09-25T07:27:37.122Z,102603.84
2018-09-25T07:30:12.084Z,102605.16
2018-09-25T07:32:46.258Z,102609.98
2018-09-25T07:35:20.011Z,102614.77
2018-09-25T07:37:53.963Z,102616.49
2018-09-25T07:40:27.587Z,102621.70
2018-09-25T07:43:01.469Z,102626.00
2018-09-25T07:45:35.335Z,102585.38
2018-09-25T07:48:10.509Z,102610.19
2018-09-25T07:50:44.181Z,102628.88
2018-09-25T07:53:18.087Z,102628.37
2018-09-25T07:55:51.815Z,102621.26
2018-09-25T07:58:25.585Z,102628.20
2018-09-25T08:00:59.386Z,102634.67
2018-09-25T08:03:33.450Z,102635.43
2018-09-25T08:06:07.250Z,102640.59
2018-09-25T08:08:41.009Z,102636.13
2018-09-25T08:11:14.631Z,102638.20
2018-09-25T08:13:48.170Z,102644.65
2018-09-25T08:16:21.905Z,102647.59
2018-09-25T08:18:55.858Z,102648.82
2018-09-25T08:21:29.509Z,102651.73
2018-09-25T08:24:03.274Z,102656.91
2018-09-25T08:26:37.239Z,102649.25
2018-09-25T08:29:10.898Z,102651.28
2018-09-25T08:31:44.826Z,102651.57
2018-09-25T08:34:18.864Z,102657.14
2018-09-25T08:36:52.638Z,102662.23
2018-09-25T08:39:26.545Z,102656.30
2018-09-25T08:42:00.414Z,102664.53
2018-09-25T08:44:34.334Z,102664.36
2018-09-25T08:47:07.978Z,102665.59
2018-09-25T08:49:41.900Z,102667.58
2018-09-25T08:52:22.682Z,102663.98
2018-09-25T08:54:56.511Z,102671.38
2018-09-25T08:57:30.882Z,102636.45
2018-09-25T09:00:04.562Z,102671.44
2018-09-25T09:02:38.218Z,102677.03
2018-09-25T09:05:11.925Z,102671.35
2018-09-25T09:07:45.647Z,102678.92
2018-09-25T09:10:20.036Z,102668.05
2018-09-25T09:12:54.020Z,102670.09
2018-09-25T09:15:27.940Z,102668.70
2018-09-25T09:18:01.749Z,102677.31
2018-09-25T09:20:35.546Z,102678.51
2018-09-25T09:23:09.487Z,102680.45
2018-09-25T09:25:43.350Z,102680.17
2018-09-25T09:28:17.254Z,102668.58
2018-09-25T09:30:50.976Z,102682.51
2018-09-25T09:33:24.558Z,102677.18
2018-09-25T09:35:59.426Z,102690.16
2018-09-25T09:38:33.418Z,102688.25
2018-09-25T09:41:07.264Z,102683.70
2018-09-25T09:43:41.652Z,102693.80
2018-09-25T09:46:15.446Z,102691.53
2018-09-25T09:48:50.134Z,102688.88
2018-09-25T09:51:23.834Z,102691.34
2018-09-25T09:53:57.670Z,102690.64
2018-09-25T09:56:31.804Z,102687.87
2018-09-25T09:59:05.472Z,102686.88
2018-09-25T10:01:39.529Z,102689.78
2018-09-25T10:04:15.102Z,102639.14
2018-09-25T10:06:49.110Z,102692.88
2018-09-25T10:09:22.734Z,102680.51
2018-09-25T10:11:56.562Z,102686.61
2018-09-25T10:14:30.274Z,102689.26
2018-09-25T10:17:03.971Z,102696.80
2018-09-25T10:19:39.318Z,102690.98
2018-09-25T10:22:13.390Z,102685.04
2018-09-25T10:24:47.002Z,102683.95
2018-09-25T10:27:20.838Z,102688.69
2018-09-25T10:29:55.218Z,102690.64
2018-09-25T10:32:29.087Z,102683.05
2018-09-25T10:35:02.718Z,102678.78
2018-09-25T10:37:36.467Z,102678.12
2018-09-25T10:40:10.346Z,102678.12
2018-09-25T10:42:44.489Z,102673.48
2018-09-25T10:45:18.290Z,102664.51
2018-09-25T10:47:52.239Z,102666.58
2018-09-25T10:50:26.058Z,102660.62
2018-09-25T10:53:00.022Z,102649.97
2018-09-25T10:55:34.171Z,102652.77
2018-09-25T10:58:08.066Z,102642.87
2018-09-25T11:00:41.841Z,102641.16
2018-09-25T11:03:15.859Z,102638.41
2018-09-25T11:05:49.531Z,102652.91
2018-09-25T11:08:23.310Z,102651.48
2018-09-25T11:10:57.165Z,102609.27
2018-09-25T11:13:30.830Z,102640.98
2018-09-25T11:16:04.642Z,102652.76
2018-09-25T11:18:38.440Z,102649.11
2018-09-25T11:21:12.431Z,102645.67
2018-09-25T11:23:47.128Z,102644.00
2018-09-25T11:26:21.021Z,102651.23
2018-09-25T11:28:54.834Z,102650.33
2018-09-25T11:31:28.565Z,102632.41
2018-09-25T11:34:02.317Z,102651.96
2018-09-25T11:36:36.198Z,102655.72
2018-09-25T11:39:10.916Z,102647.44
2018-09-25T11:41:44.726Z,102639.31
2018-09-25T11:44:18.766Z,102569.47
2018-09-25T11:46:53.219Z,102634.05
2018-09-25T11:49:27.010Z,102634.16
2018-09-25T11:52:00.917Z,102630.47
2018-09-25T11:54:34.670Z,102621.16
2018-09-25T11:57:08.215Z,102622.83
2018-09-25T11:59:42.300Z,102620.34
2018-09-25T12:02:16.085Z,102626.44
2018-09-25T12:04:49.846Z,102618.64
2018-09-25T12:07:24.227Z,102630.80
2018-09-25T12:09:57.963Z,102638.89
2018-09-25T12:12:31.690Z,102640.33
2018-09-25T12:15:06.262Z,102596.47
2018-09-25T12:17:40.203Z,102644.61
2018-09-25T12:20:13.890Z,102642.45
2018-09-25T12:22:47.651Z,102637.95
2018-09-25T12:25:21.332Z,102642.06
2018-09-25T12:27:54.962Z,102639.05
2018-09-25T12:30:30.097Z,102627.83
2018-09-25T12:33:04.233Z,102630.68
2018-09-25T12:35:37.960Z,102624.98
2018-09-25T12:38:11.765Z,102615.52
2018-09-25T12:40:45.836Z,102616.13
2018-09-25T12:43:19.525Z,102619.34
2018-09-25T12:45:53.397Z,102616.56
2018-09-25T12:48:27.192Z,102614.14
2018-09-25T12:51:01.882Z,102612.47
2018-09-25T12:53:35.733Z,102609.41
2018-09-25T12:56:09.394Z,102605.87
2018-09-25T12:58:42.950Z,102608.64
2018-09-25T13:01:16.582Z,102612.92
2018-09-25T13:03:50.686Z,102561.37
2018-09-25T13:06:24.649Z,102607.31
2018-09-25T13:08:58.413Z,102604.98
2018-09-25T13:11:32.158Z,102602.05
2018-09-25T13:14:05.882Z,102586.88
2018-09-25T13:16:39.726Z,102565.33
2018-09-25T13:19:13.675Z,102531.40
2018-09-25T13:21:47.501Z,102583.31
2018-09-25T13:24:21.329Z,102592.37
2018-09-25T13:26:55.174Z,102592.31
2018-09-25T13:29:28.938Z,102585.00
2018-09-25T13:32:02.535Z,102597.84
2018-09-25T13:34:36.317Z,102554.91
2018-09-25T13:37:10.066Z,102590.67
2018-09-25T13:39:44.529Z,102591.26
2018-09-25T13:42:18.430Z,102590.03
2018-09-25T13:44:52.343Z,102593.57
2018-09-25T13:47:26.061Z,102600.95
2018-09-25T13:50:00.169Z,102599.23
2018-09-25T13:52:34.002Z,102601.30
2018-09-25T13:55:07.698Z,102599.91
2018-09-25T13:57:41.342Z,102594.38
2018-09-25T14:00:15.538Z,102580.73
2018-09-25T14:02:49.493Z,102583.75
2018-09-25T14:05:23.651Z,102580.89
2018-09-25T14:07:58.539Z,102584.45
2018-09-25T14:10:32.241Z,102577.30
2018-09-25T14:13:05.910Z,102570.84
2018-09-25T14:15:39.720Z,102580.66
2018-09-25T14:18:13.551Z,102579.44
2018-09-25T14:20:47.426Z,102579.36
2018-09-25T14:23:22.831Z,102562.42
2018-09-25T14:25:56.558Z,102567.05
2018-09-25T14:28:30.309Z,102563.48
2018-09-25T14:31:04.017Z,102560.40
2018-09-25T14:33:37.819Z,102545.37
2018-09-25T14:36:11.689Z,102546.77
2018-09-25T14:38:45.906Z,102546.88
2018-09-25T14:41:19.745Z,102548.02
2018-09-25T14:43:53.934Z,102544.53
2018-09-25T14:46:27.765Z,102545.03
2018-09-25T14:49:01.503Z,102536.01
2018-09-25T14:51:35.268Z,102538.78
2018-09-25T14:54:09.181Z,102539.02
2018-09-25T14:56:43.023Z,102537.52
2018-09-25T14:59:17.055Z,102540.69
2018-09-25T15:01:50.803Z,102548.49
2018-09-25T15:04:24.621Z,102536.64
2018-09-25T15:06:58.574Z,102531.45
2018-09-25T15:09:32.371Z,102538.81
2018-09-25T15:12:06.331Z,102539.91
2018-09-25T15:14:40.260Z,102543.67
2018-09-25T15:17:14.146Z,102537.30
2018-09-25T15:19:48.004Z,102530.22
2018-09-25T15:22:22.095Z,102521.42
2018-09-25T15:24:55.324Z,102515.18
2018-09-25T15:27:29.589Z,102520.71
2018-09-25T15:30:03.404Z,102520.71
2018-09-25T15:32:37.115Z,102513.56
2018-09-25T15:35:11.171Z,102510.41
2018-09-25T15:37:45.010Z,102507.32
2018-09-25T15:40:18.502Z,102504.67
2018-09-25T15:42:52.510Z,102495.91
2018-09-25T15:45:26.393Z,102495.09
2018-09-25T15:48:00.243Z,102481.81
2018-09-25T15:50:34.062Z,102482.86
2018-09-25T15:53:07.858Z,102482.86
2018-09-25T15:55:41.618Z,102479.27
2018-09-25T15:58:15.460Z,102479.38
2018-09-25T16:00:49.142Z,102475.00
2018-09-25T16:03:22.858Z,102477.45
2018-09-25T16:05:56.754Z,102481.25
2018-09-25T16:08:30.607Z,102480.09
2018-09-25T16:11:04.489Z,102484.55
2018-09-25T16:13:38.478Z,102428.31
2018-09-25T16:16:13.186Z,102478.70
2018-09-25T16:18:46.854Z,102479.63
2018-09-25T16:21:20.622Z,102484.22
2018-09-25T16:23:54.501Z,102489.13
2018-09-25T16:26:28.357Z,102482.70
2018-09-25T16:29:02.129Z,102437.72
2018-09-25T16:31:35.946Z,102468.61
2018-09-25T16:34:09.739Z,102471.27
2018-09-25T16:36:43.450Z,102466.89
2018-09-25T16:39:17.276Z,102464.23
2018-09-25T16:41:51.026Z,102461.69
2018-09-25T16:44:25.065Z,102453.73
2018-09-25T16:46:58.820Z,102455.16
2018-09-25T16:49:33.518Z,102446.44
2018-09-25T16:52:07.470Z,102443.48
2018-09-25T16:54:41.437Z,102451.06
2018-09-25T16:57:15.365Z,102445.52
2018-09-25T16:59:50.187Z,102443.75
2018-09-25T17:02:24.151Z,102398.97
2018-09-25T17:04:58.638Z,102454.36
2018-09-25T17:07:32.280Z,102451.06
2018-09-25T17:10:05.947Z,102444.33
2018-09-25T17:12:39.806Z,102449.59
2018-09-25T17:15:13.809Z,102441.78
2018-09-25T17:17:47.775Z,102440.45
2018-09-25T17:20:21.458Z,102434.91
2018-09-25T17:22:55.302Z,102434.56
2018-09-25T17:25:28.998Z,102436.00
2018-09-25T17:28:02.664Z,102433.45
2018-09-25T17:30:36.242Z,102428.25
2018-09-25T17:33:10.332Z,102432.38
2018-09-25T17:35:44.006Z,102422.22
2018-09-25T17:38:17.840Z,102417.84
2018-09-25T17:40:51.662Z,102414.80
2018-09-25T17:43:25.663Z,102410.82
2018-09-25T17:45:59.404Z,102404.64
2018-09-25T17:48:33.410Z,102409.27
2018-09-25T17:51:07.379Z,102357.00
2018-09-25T17:53:41.274Z,102385.16
2018-09-25T17:56:15.054Z,102384.59
2018-09-25T17:58:48.842Z,102369.09
2018-09-25T18:01:22.666Z,102362.36
2018-09-25T18:03:57.449Z,102360.92
2018-09-25T18:06:31.699Z,102366.13
2018-09-25T18:09:05.622Z,102352.75
2018-09-25T18:11:39.429Z,102352.20
2018-09-25T18:14:13.479Z,102353.86
2018-09-25T18:16:47.229Z,102363.97
2018-09-25T18:19:21.921Z,102253.97
2018-09-25T18:21:55.710Z,102363.97
2018-09-25T18:24:29.657Z,102362.16
2018-09-25T18:27:03.314Z,102363.86
2018-09-25T18:29:37.038Z,102360.28
2018-09-25T18:32:10.786Z,102356.70
2018-09-25T18:34:44.598Z,102371.71
2018-09-25T18:37:18.508Z,102354.26
2018-09-25T18:39:52.341Z,102363.70
2018-09-25T18:42:25.989Z,102364.15
2018-09-25T18:45:00.365Z,102353.59
2018-09-25T18:47:34.226Z,102357.58
2018-09-25T18:50:07.930Z,102358.56
2018-09-25T18:52:41.702Z,102354.69
2018-09-25T18:55:15.478Z,102349.89
2018-09-25T18:57:50.312Z,102350.48
2018-09-25T19:00:24.182Z,102344.69
2018-09-25T19:02:58.016Z,102335.84
2018-09-25T19:05:31.967Z,102337.61
2018-09-25T19:08:05.838Z,102336.73
2018-09-25T19:10:39.952Z,102331.32
2018-09-25T19:13:13.861Z,102320.77
2018-09-25T19:15:47.727Z,102314.56
2018-09-25T19:18:21.317Z,102298.17
2018-09-25T19:20:55.022Z,102300.32
2018-09-25T19:23:28.506Z,102303.87
2018-09-25T19:26:02.247Z,102206.74
2018-09-25T19:28:35.872Z,102273.91
2018-09-25T19:31:09.678Z,102272.19
2018-09-25T19:33:43.502Z,102267.89
2018-09-25T19:36:17.210Z,102202.66
2018-09-25T19:38:51.058Z,102256.84
2018-09-25T19:41:24.934Z,102271.26
2018-09-25T19:43:58.691Z,102269.00
2018-09-25T19:46:32.507Z,102269.28
2018-09-25T19:49:06.234Z,102263.13
2018-09-25T19:51:40.074Z,102256.02
2018-09-25T19:54:13.975Z,102252.47
2018-09-25T19:56:47.895Z,102251.87
2018-09-25T19:59:21.711Z,102251.81
2018-09-25T20:01:55.450Z,102250.09
2018-09-25T20:04:29.553Z,102243.85
2018-09-25T20:07:03.476Z,102236.89
2018-09-25T20:09:37.202Z,102233.78
2018-09-25T20:12:10.986Z,102232.03
2018-09-25T20:14:44.564Z,102231.58
2018-09-25T20:17:18.268Z,102228.59
2018-09-25T20:19:52.101Z,102223.73
2018-09-25T20:22:25.917Z,102214.97
2018-09-25T20:24:59.502Z,102221.75
2018-09-25T20:27:33.496Z,102217.52
2018-09-25T20:30:07.138Z,102196.75
2018-09-25T20:32:40.882Z,102209.89
2018-09-25T20:35:14.828Z,102209.50
2018-09-25T20:37:48.710Z,102209.89
2018-09-25T20:40:22.522Z,102205.36
2018-09-25T20:42:56.478Z,102207.02
2018-09-25T20:45:30.103Z,102206.91
2018-09-25T20:48:03.794Z,102198.05
2018-09-25T20:50:37.583Z,102194.58
2018-09-25T20:53:11.478Z,102193.53
2018-09-25T20:55:45.233Z,102135.63
2018-09-25T20:58:19.206Z,102171.80
2018-09-25T21:00:52.798Z,102182.80
2018-09-25T21:03:26.694Z,102178.89
2018-09-25T21:06:00.344Z,102170.20
2018-09-25T21:08:34.299Z,102168.06
2018-09-25T21:11:08.226Z,102090.92
2018-09-25T21:13:42.074Z,102168.12
2018-09-25T21:16:15.813Z,102165.58
2018-09-25T21:18:49.614Z,102173.20
2018-09-25T21:21:23.612Z,102163.50
2018-09-25T21:23:57.466Z,102163.11
2018-09-25T21:26:31.169Z,102108.64
2018-09-25T21:29:04.978Z,102147.70
2018-09-25T21:31:38.797Z,102144.66
2018-09-25T21:34:12.862Z,102149.03
2018-09-25T21:36:46.724Z,102150.90
2018-09-25T21:39:20.657Z,102122.63
2018-09-25T21:41:54.322Z,102109.73
2018-09-25T21:44:28.150Z,102110.38
2018-09-25T21:47:01.981Z,102105.83
2018-09-25T21:49:35.982Z,102103.96
2018-09-25T21:52:09.823Z,102105.28
2018-09-25T21:54:43.768Z,102095.89
2018-09-25T21:57:17.748Z,102092.84
2018-09-25T21:59:51.389Z,102053.05
2018-09-25T22:02:25.211Z,102080.91
2018-09-25T22:04:58.945Z,102088.87
2018-09-25T22:07:32.681Z,102088.36
2018-09-25T22:10:09.562Z,102082.18
2018-09-25T22:12:43.386Z,102084.37
2018-09-25T22:15:17.206Z,102070.70
2018-09-25T22:17:51.007Z,102077.33
2018-09-25T22:20:24.615Z,102069.49
2018-09-25T22:22:58.473Z,102063.11
2018-09-25T22:25:32.172Z,102064.43
2018-09-25T22:28:05.766Z,102062.72
2018-09-25T22:30:39.628Z,102056.72
2018-09-25T22:33:13.488Z,102045.48
2018-09-25T22:35:47.353Z,102037.53
2018-09-25T22:38:21.147Z,102035.39
2018-09-25T22:40:54.921Z,102016.33
2018-09-25T22:43:28.528Z,102012.34
2018-09-25T22:46:02.563Z,102006.23
2018-09-25T22:48:36.367Z,102003.88
2018-09-25T22:51:10.172Z,102001.62
2018-09-25T22:53:43.749Z,101996.44
2018-09-25T22:56:17.584Z,101978.82
2018-09-25T22:58:51.310Z,102002.68
2018-09-25T23:01:25.185Z,101985.03
2018-09-25T23:03:58.973Z,101983.58
2018-09-25T23:06:32.765Z,101986.23
2018-09-25T23:09:06.609Z,101976.89
2018-09-25T23:11:40.193Z,101959.20
2018-09-25T23:14:14.012Z,101963.70
2018-09-25T23:16:47.957Z,101957.94
2018-09-25T23:19:21.825Z,101959.20
2018-09-25T23:21:55.632Z,101962.80
2018-09-25T23:24:29.421Z,101961.86
2018-09-25T23:27:03.373Z,101954.03
2018-09-25T23:29:37.277Z,101961.47
2018-09-25T23:32:11.153Z,101903.59
2018-09-25T23:34:45.005Z,101952.91
2018-09-25T23:37:18.893Z,101951.94
2018-09-25T23:39:52.485Z,101926.62
2018-09-25T23:42:29.993Z,101927.83
2018-09-25T23:47:06.501Z,101920.20
2018-09-25T23:49:55.709Z,101903.84
2018-09-25T23:52:30.235Z,101909.98
2018-09-25T23:55:03.033Z,101902.90
2018-09-25T23:57:36.261Z,101896.14
